Palmer Municipal Airport
PAAQ : rendu visible

Aérodrome :











RETROUVEZ-NOUS SUR...

 
LOGIN :

S'inscrire | Disclaimer

   EN    FR    IT 

 









Légende :    VFR   VFR Marginal   IFR   IFR Intensif   IFR Très Intensif
Visi : 
Plafond : 
>= 8 km
>= 3000ft
5 à 8 km
1000 à 3000 ft
1500m à 5 km
500 à 1000 ft
800 à 1500m
200 à 500 ft
< 800m
< 200 ft
Symboles :   Orages  Brouillard  Fortes neiges  Fortes précipitations  Vent > 20 kt






- Altitude de l'aérodrome : 242 ft
- Code IATA : PAQ


PAAQ - Palmer Municipal

DERNIER METAR :
  • 271153Z AUTO 00000KT 10SM CLR M13/M14 A2952 RMK AO2 SLP002 I1000 I6001 T11281139 11094 21144 53003 TSNO

METARs EXPIRÉS :
  • 271053Z AUTO 00000KT 10SM CLR M13/M14 A2952 RMK AO2 SLP001 I1000 T11281144 TSNO
  • 270953Z AUTO 35004KT 10SM CLR M14/M14 A2951 RMK AO2 SLP000 T11391144 TSNO

TAF PAAQ
Valide du 27 à 12h jusqu'au 28 à 12h UTC


271135Z 2712/2812 VRB06KT P6SM SCT200



MET'MAP, la Météo Aéronautique d'un coup d'oeil ! - Copyright ORBIFLY Décembre 2007 - Disclaimer

ORBIFLY MET'MAP TEAM :

Programmation & Développement : Alexandra Zaïnal
Sur une idée originale de : Baudouin d'Aumeries
Assistance à la programmation : Marc-Olivier Méhu
Soutien technique & logistique : Manuel Goepfert

Contact : metmap@orbifly.com




SOURCES & CREDITS :

   NOAA       Earth
Advisory